Time;durP1;ratioP1;P1;durP2;ratioP2;P2;SDS_P1;SDS_P2;PMS_P1;PMS_P2;Temp;Humidity;BMP_temperature;BMP_pressure;BME280_temperature;BME280_humidity;BME280_pressure;Samples;Min_cycle;Max_cycle;Signal;HPM_P1;HPM_P2
2022/03/05 00:01:05;;;;;;;5.25;1.50;;;-0.60;99.90;;;-2.19;100.00;102229.38;4976589;28;20526;-72
2022/03/05 00:03:31;;;;;;;8.20;1.65;;;-0.50;99.90;;;-2.09;100.00;102230.53;4970714;28;20026;-73
2022/03/05 00:05:57;;;;;;;4.97;1.20;;;-0.40;99.90;;;-2.00;100.00;102233.38;4968841;28;20026;-74
2022/03/05 00:08:23;;;;;;;8.40;1.55;;;-0.30;99.90;;;-1.89;100.00;102223.34;4999073;28;20034;-73
2022/03/05 00:10:49;;;;;;;8.85;1.08;;;-0.20;99.90;;;-1.77;100.00;102225.41;4972878;28;20022;-73
2022/03/05 00:13:15;;;;;;;11.95;1.48;;;-0.10;99.90;;;-1.65;100.00;102231.78;4961065;28;20037;-74
2022/03/05 00:15:43;;;;;;;14.80;1.17;;;0.00;99.90;;;-1.53;100.00;102223.50;4967836;28;20035;-73
2022/03/05 00:18:09;;;;;;;10.43;1.48;;;0.10;99.90;;;-1.43;100.00;102222.03;4969928;28;21539;-73
2022/03/05 00:20:36;;;;;;;10.23;1.50;;;0.20;99.90;;;-1.30;100.00;102215.47;4961633;28;20041;-73
2022/03/05 00:23:02;;;;;;;5.05;1.05;;;0.30;99.90;;;-1.18;100.00;102218.38;4992685;28;20022;-72
2022/03/05 00:25:28;;;;;;;6.15;1.02;;;0.50;99.90;;;-1.08;100.00;102212.63;4971765;28;20034;-73
2022/03/05 00:27:55;;;;;;;6.80;1.10;;;0.50;99.90;;;-0.98;100.00;102221.47;4992789;28;20522;-73
2022/03/05 00:30:22;;;;;;;7.63;0.95;;;0.70;99.90;;;-0.87;100.00;102216.56;4959962;28;20046;-72
2022/03/05 00:32:48;;;;;;;7.68;1.20;;;0.80;99.90;;;-0.73;100.00;102222.94;4946144;28;20030;-73
2022/03/05 00:35:14;;;;;;;9.30;1.00;;;0.90;99.90;;;-0.60;100.00;102221.53;4973254;28;20054;-73
2022/03/05 00:37:41;;;;;;;7.72;1.10;;;1.00;99.90;;;-0.46;100.00;102227.00;4970287;28;20413;-73
2022/03/05 00:40:09;;;;;;;7.40;1.02;;;1.10;99.90;;;-0.34;100.00;102227.28;4993660;28;20030;-73
2022/03/05 00:42:35;;;;;;;4.78;0.90;;;1.30;99.90;;;-0.23;100.00;102232.72;4981988;28;20061;-73
2022/03/05 00:45:08;;;;;;;7.72;1.48;;;1.40;99.90;;;-0.12;100.00;102232.94;4969928;28;20432;-73
2022/03/05 00:47:35;;;;;;;6.60;0.93;;;1.40;99.90;;;-0.10;100.00;102236.44;4983502;28;20028;-75
2022/03/05 00:50:05;;;;;;;3.75;0.80;;;1.50;99.90;;;-0.01;100.00;102228.84;4932426;28;20089;-73
2022/03/05 00:52:34;;;;;;;9.32;0.98;;;1.60;99.90;;;0.04;100.00;102229.81;4990595;28;20033;-73
2022/03/05 00:55:01;;;;;;;10.07;0.98;;;1.60;99.90;;;0.13;100.00;102232.63;4963585;28;20108;-73
2022/03/05 00:57:27;;;;;;;10.20;0.95;;;1.70;99.90;;;0.16;100.00;102230.09;4979251;28;20023;-73
2022/03/05 00:59:52;;;;;;;3.42;0.80;;;1.70;99.90;;;0.23;100.00;102227.63;4974384;28;20041;-73
2022/03/05 01:02:19;;;;;;;4.22;0.85;;;1.80;99.90;;;0.25;100.00;102226.81;4961067;28;20054;-73
2022/03/05 01:04:45;;;;;;;6.90;0.93;;;1.80;99.90;;;0.32;100.00;102235.56;4974038;28;20426;-73
2022/03/05 01:07:11;;;;;;;10.32;1.25;;;1.80;99.90;;;0.28;100.00;102228.56;4988641;28;20053;-73
2022/03/05 01:09:37;;;;;;;5.18;0.80;;;1.80;99.90;;;0.28;100.00;102237.25;4958889;28;20106;-73
2022/03/05 01:12:04;;;;;;;10.73;1.00;;;1.80;99.90;;;0.30;100.00;102234.66;4960736;28;20085;-73
2022/03/05 01:14:30;;;;;;;3.72;0.55;;;1.90;99.90;;;0.33;100.00;102233.00;4971103;28;20047;-73
2022/03/05 01:16:56;;;;;;;6.18;0.93;;;1.90;99.90;;;0.37;100.00;102229.66;4965431;28;20039;-73
2022/03/05 01:19:22;;;;;;;2.63;0.68;;;1.90;99.90;;;0.39;100.00;102227.09;4949001;28;20022;-73
2022/03/05 01:21:48;;;;;;;4.43;0.60;;;1.90;99.90;;;0.40;100.00;102227.09;4972378;28;20034;-73
2022/03/05 01:24:14;;;;;;;11.63;1.38;;;1.90;99.90;;;0.41;100.00;102222.78;4969462;28;20041;-73
2022/03/05 01:26:40;;;;;;;3.05;0.90;;;1.90;99.90;;;0.40;100.00;102218.47;4961976;28;20027;-74
2022/03/05 01:29:06;;;;;;;7.78;0.95;;;1.90;99.90;;;0.45;100.00;102227.19;4967087;28;20041;-74
2022/03/05 01:31:32;;;;;;;9.02;0.98;;;1.90;99.90;;;0.47;100.00;102224.63;4963060;28;20167;-73
2022/03/05 01:33:58;;;;;;;6.97;1.15;;;2.00;99.90;;;0.49;99.48;102229.00;4966638;28;20050;-73
2022/03/05 01:36:24;;;;;;;6.30;0.80;;;2.00;99.90;;;0.50;99.47;102224.72;4992521;28;20042;-74
2022/03/05 01:38:49;;;;;;;6.38;0.90;;;1.90;99.90;;;0.45;99.53;102223.72;4969323;28;20098;-73
2022/03/05 01:41:18;;;;;;;4.85;0.90;;;2.00;99.90;;;0.43;99.52;102223.69;4957842;28;20057;-74
2022/03/05 01:43:52;;;;;;;8.20;1.02;;;1.90;99.90;;;0.45;99.66;102227.19;4982089;28;20447;-73
2022/03/05 01:46:40;;;;;;;4.82;1.13;;;1.90;99.90;;;0.44;99.29;102225.44;4967461;28;20027;-73
2022/03/05 01:49:10;;;;;;;5.32;0.95;;;2.00;99.90;;;0.39;99.28;102220.19;4950274;28;20129;-73
2022/03/05 01:51:37;;;;;;;5.45;1.20;;;1.90;99.90;;;0.38;99.60;102220.16;4969831;28;20039;-73
2022/03/05 01:54:04;;;;;;;8.07;0.98;;;2.00;99.90;;;0.43;99.47;102223.69;4967240;28;20035;-73
2022/03/05 01:56:32;;;;;;;8.90;0.80;;;1.90;99.90;;;0.42;99.48;102228.88;4960343;28;20062;-73
2022/03/05 01:58:59;;;;;;;8.23;1.13;;;1.90;99.90;;;0.44;100.00;102228.03;4980351;28;20096;-73
2022/03/05 02:01:28;;;;;;;9.38;1.02;;;2.00;99.90;;;0.46;99.57;102228.94;4958035;28;20563;-73
2022/03/05 02:03:56;;;;;;;3.97;0.90;;;2.00;99.90;;;0.47;99.60;102228.09;4969153;28;20103;-73
2022/03/05 02:06:24;;;;;;;6.55;0.98;;;2.00;99.90;;;0.50;99.27;102225.56;4972322;28;20072;-73
2022/03/05 02:08:50;;;;;;;5.57;1.10;;;2.00;99.90;;;0.51;99.89;102218.66;4976012;28;20108;-73
2022/03/05 02:11:17;;;;;;;7.07;1.02;;;2.00;99.90;;;0.52;98.84;102217.81;4966412;28;20045;-73
2022/03/05 02:13:44;;;;;;;10.32;1.00;;;2.00;99.90;;;0.49;99.64;102217.75;4980085;28;20617;-72
2022/03/05 02:16:11;;;;;;;10.90;0.93;;;2.00;99.90;;;0.50;99.40;102217.78;4961633;28;20046;-73
2022/03/05 02:18:37;;;;;;;8.05;1.40;;;2.00;99.90;;;0.45;99.63;102216.81;4964417;28;20022;-73
2022/03/05 02:21:05;;;;;;;9.00;1.20;;;2.00;99.90;;;0.50;99.46;102210.03;4952364;28;20050;-73
2022/03/05 02:23:31;;;;;;;10.57;1.38;;;2.10;99.90;;;0.48;99.31;102206.53;4971852;28;20562;-73
2022/03/05 02:26:02;;;;;;;4.65;1.30;;;2.10;99.90;;;0.55;99.21;102205.78;4973339;28;20030;-73
2022/03/05 02:28:32;;;;;;;5.93;0.75;;;2.10;99.90;;;0.58;99.05;102210.16;4991340;28;20027;-74
2022/03/05 02:30:59;;;;;;;4.72;1.10;;;2.10;99.90;;;0.59;98.79;102205.00;4969032;28;20034;-74
2022/03/05 02:33:25;;;;;;;12.32;1.38;;;2.10;99.90;;;0.62;98.77;102204.19;4971155;28;20081;-73
2022/03/05 02:35:51;;;;;;;4.95;1.48;;;2.20;99.90;;;0.61;98.53;102195.53;4972761;28;20042;-74
2022/03/05 02:38:22;;;;;;;6.03;1.30;;;2.10;99.90;;;0.59;98.05;102209.31;4964509;28;20048;-74
2022/03/05 02:40:51;;;;;;;8.43;1.20;;;2.10;99.90;;;0.54;98.65;102200.56;4966691;28;20077;-74
2022/03/05 02:43:18;;;;;;;13.02;1.38;;;2.10;99.90;;;0.57;98.09;102208.41;4967732;28;20033;-73
2022/03/05 02:45:45;;;;;;;5.07;1.00;;;2.10;99.90;;;0.48;97.81;102205.66;4968760;28;20434;-73
2022/03/05 02:48:14;;;;;;;5.25;1.38;;;2.10;99.90;;;0.54;97.89;102206.66;4986533;28;20600;-73
2022/03/05 02:50:42;;;;;;;5.35;1.20;;;2.10;99.90;;;0.56;97.65;102210.13;4988424;28;20122;-73
2022/03/05 02:53:09;;;;;;;10.82;1.02;;;2.10;99.90;;;0.58;97.86;102213.63;4974665;28;20034;-73
2022/03/05 02:55:35;;;;;;;14.20;1.23;;;2.20;99.90;;;0.60;97.69;102205.88;5007945;28;20042;-73
2022/03/05 02:58:03;;;;;;;10.00;0.95;;;2.20;99.90;;;0.55;97.68;102208.38;4983975;28;20023;-74
2022/03/05 03:00:30;;;;;;;4.15;0.90;;;2.10;99.90;;;0.64;97.52;102199.91;4975009;28;20029;-74
2022/03/05 03:02:57;;;;;;;5.53;1.08;;;2.20;99.90;;;0.66;97.36;102203.38;4954819;28;20054;-73
2022/03/05 03:05:23;;;;;;;5.13;1.23;;;2.10;99.90;;;0.63;97.19;102202.44;4969293;28;20113;-73
2022/03/05 03:07:49;;;;;;;9.57;1.42;;;2.20;99.90;;;0.59;97.14;102205.00;4963986;28;20037;-74
2022/03/05 03:10:17;;;;;;;4.50;1.00;;;2.20;99.90;;;0.60;96.68;102214.53;4953920;28;20434;-73
2022/03/05 03:12:44;;;;;;;4.25;1.13;;;2.30;99.90;;;0.67;96.60;102205.16;4946125;28;20081;-73
2022/03/05 03:15:14;;;;;;;5.00;1.17;;;2.20;99.90;;;0.70;96.46;102201.72;4972303;28;20042;-73
2022/03/05 03:17:49;;;;;;;7.85;1.00;;;2.20;99.90;;;0.69;96.32;102200.88;4930427;28;20041;-73
2022/03/05 03:20:21;;;;;;;2.45;0.90;;;2.20;99.90;;;0.65;96.19;102195.56;4973136;28;20022;-73
2022/03/05 03:22:47;;;;;;;10.93;1.10;;;2.20;99.90;;;0.69;96.22;102206.06;4971228;28;20089;-73
2022/03/05 03:25:14;;;;;;;8.82;1.20;;;2.20;99.90;;;0.69;95.84;102213.84;4976870;28;20031;-74
2022/03/05 03:27:40;;;;;;;7.53;1.60;;;2.20;99.90;;;0.70;95.58;102206.91;4963798;28;20489;-74
2022/03/05 03:30:10;;;;;;;6.18;1.20;;;2.20;99.90;;;0.69;95.66;102205.16;4936641;28;20025;-74
2022/03/05 03:32:37;;;;;;;6.10;1.35;;;2.20;99.90;;;0.63;95.93;102215.41;4972455;28;20036;-73
2022/03/05 03:35:06;;;;;;;8.55;1.77;;;2.20;99.90;;;0.65;95.83;102218.91;4967001;28;20027;-73
2022/03/05 03:37:32;;;;;;;4.25;1.35;;;2.10;99.90;;;0.59;95.84;102215.38;4970254;28;20046;-73
2022/03/05 03:40:03;;;;;;;5.20;1.33;;;2.10;99.90;;;0.56;95.92;102214.44;4970585;28;20050;-73
2022/03/05 03:42:29;;;;;;;6.10;1.13;;;2.10;99.90;;;0.61;95.70;102218.00;4971961;28;20032;-73
2022/03/05 03:44:56;;;;;;;7.20;1.80;;;2.20;99.90;;;0.63;95.82;102221.50;4982543;28;20027;-73
2022/03/05 03:47:24;;;;;;;11.10;1.58;;;2.10;99.90;;;0.59;95.82;102230.91;4943838;28;20022;-74
2022/03/05 03:49:51;;;;;;;8.13;1.40;;;2.10;99.90;;;0.60;95.64;102218.81;4968330;28;20518;-73
2022/03/05 03:52:17;;;;;;;9.50;1.77;;;2.10;99.90;;;0.60;95.72;102222.31;4967611;28;20559;-73
2022/03/05 03:54:46;;;;;;;6.15;1.27;;;2.20;99.90;;;0.61;95.90;102225.78;4968079;28;20050;-74
2022/03/05 03:57:13;;;;;;;6.35;1.20;;;2.10;99.90;;;0.63;95.87;102226.69;4970818;28;20045;-74
2022/03/05 03:59:39;;;;;;;10.35;1.45;;;2.10;99.90;;;0.64;95.52;102223.22;4965538;28;20027;-74
2022/03/05 04:02:06;;;;;;;7.45;1.27;;;2.10;99.90;;;0.60;95.69;102227.50;4967677;28;20482;-74
2022/03/05 04:04:32;;;;;;;6.50;1.40;;;2.20;99.90;;;0.62;95.85;102222.31;4952128;28;20030;-74
2022/03/05 04:09:42;;;;;;;7.68;1.17;;;2.10;99.90;;;0.54;95.64;102222.19;4959075;28;20073;-73
2022/03/05 04:12:09;;;;;;;4.43;1.20;;;2.10;99.90;;;0.55;95.42;102226.53;4968174;28;20085;-73
2022/03/05 04:14:38;;;;;;;7.38;1.20;;;2.10;99.90;;;0.55;94.62;102234.28;4931146;28;20446;-74
2022/03/05 04:17:06;;;;;;;7.45;1.30;;;2.10;99.90;;;0.44;94.40;102234.94;4939171;28;20170;-73
2022/03/05 04:19:33;;;;;;;6.50;1.10;;;2.10;99.90;;;0.47;94.37;102227.22;4968069;28;20023;-74
2022/03/05 04:21:59;;;;;;;8.88;1.27;;;2.10;99.90;;;0.50;94.28;102229.88;4944620;28;20035;-73
2022/03/05 04:24:26;;;;;;;5.78;1.08;;;2.10;99.90;;;0.54;93.84;102229.97;4957253;28;20097;-74
2022/03/05 04:26:54;;;;;;;6.82;1.65;;;2.10;99.90;;;0.50;93.88;102228.16;4961020;28;20108;-73
2022/03/05 04:29:24;;;;;;;6.43;1.55;;;2.10;99.90;;;0.55;94.04;102228.25;4965445;28;20414;-74
2022/03/05 04:31:50;;;;;;;5.75;1.70;;;2.10;99.90;;;0.61;93.58;102226.63;4959955;28;20050;-74
2022/03/05 04:34:16;;;;;;;13.52;1.52;;;2.10;99.90;;;0.61;93.29;102228.38;4952945;28;20569;-74
2022/03/05 04:36:42;;;;;;;7.47;1.48;;;2.10;99.90;;;0.61;93.07;102228.38;4961201;28;20494;-73
2022/03/05 04:39:11;;;;;;;6.68;1.20;;;2.10;99.90;;;0.59;93.01;102224.88;4971804;28;20183;-73
2022/03/05 04:41:37;;;;;;;11.63;2.00;;;2.10;99.90;;;0.59;92.70;102228.31;4938466;28;20046;-74
2022/03/05 04:44:04;;;;;;;8.63;1.50;;;2.10;99.90;;;0.57;93.01;102230.00;4981562;28;20083;-74
2022/03/05 04:46:30;;;;;;;7.95;1.52;;;2.10;99.90;;;0.60;92.67;102235.28;4965325;28;20080;-74
2022/03/05 04:48:56;;;;;;;5.43;1.13;;;2.10;99.90;;;0.57;92.21;102227.44;4945309;28;20096;-73
2022/03/05 04:51:22;;;;;;;6.13;1.20;;;2.10;99.90;;;0.48;92.43;102229.84;4962106;28;20034;-73
2022/03/05 04:53:48;;;;;;;5.57;1.00;;;2.10;99.90;;;0.53;92.44;102224.75;4964620;28;20044;-73
2022/03/05 04:56:14;;;;;;;6.50;1.33;;;2.10;99.90;;;0.53;92.08;102225.63;4965008;28;20093;-74
2022/03/05 04:58:40;;;;;;;15.90;1.70;;;2.10;99.90;;;0.54;92.39;102229.06;4965668;28;20390;-74
2022/03/05 05:01:06;;;;;;;8.52;1.67;;;2.10;99.90;;;0.51;91.76;102227.31;4958382;28;20023;-74
2022/03/05 05:03:33;;;;;;;9.48;1.33;;;2.00;99.90;;;0.50;91.52;102222.97;4942060;28;21333;-74
2022/03/05 05:06:00;;;;;;;7.28;1.40;;;2.10;99.90;;;0.48;92.33;102226.41;4941468;28;20066;-74
2022/03/05 05:08:26;;;;;;;6.88;1.65;;;2.10;99.90;;;0.53;92.34;102228.22;4965616;28;20114;-74
2022/03/05 05:10:52;;;;;;;4.30;1.40;;;2.00;99.90;;;0.53;92.33;102232.53;4967994;28;20023;-73
2022/03/05 05:13:18;;;;;;;10.52;1.83;;;2.00;99.90;;;0.44;92.55;102234.94;4941411;28;20030;-74
2022/03/05 05:15:47;;;;;;;7.40;1.52;;;2.00;99.90;;;0.41;92.36;102227.97;4966169;28;20039;-73
2022/03/05 05:18:14;;;;;;;3.22;1.55;;;2.00;99.90;;;0.38;92.22;102239.16;4983288;28;20642;-73
2022/03/05 05:20:40;;;;;;;4.45;1.48;;;1.90;99.90;;;0.32;92.68;102239.03;4965646;28;20033;-73
2022/03/05 05:23:07;;;;;;;8.02;1.25;;;2.00;99.90;;;0.38;91.97;102235.69;4967449;28;20032;-74
2022/03/05 05:25:33;;;;;;;6.15;1.30;;;2.00;99.90;;;0.38;91.54;102230.50;4966926;28;20152;-74
2022/03/05 05:28:01;;;;;;;9.18;1.30;;;1.90;99.90;;;0.36;91.15;102237.38;4962001;28;20042;-74
2022/03/05 05:30:27;;;;;;;3.35;1.13;;;1.90;99.90;;;0.35;91.29;102239.09;4967362;28;20165;-73
2022/03/05 05:32:53;;;;;;;4.88;1.30;;;1.90;99.90;;;0.38;91.38;102244.34;4952748;28;20462;-74
2022/03/05 05:35:19;;;;;;;8.43;1.42;;;1.90;99.90;;;0.39;91.68;102245.22;4956420;28;20034;-73
2022/03/05 05:37:46;;;;;;;11.65;3.00;;;1.90;99.90;;;0.39;91.18;102253.00;4936169;28;20026;-73
2022/03/05 05:40:12;;;;;;;6.40;1.02;;;1.90;99.90;;;0.34;91.16;102249.44;4979893;28;20120;-74
2022/03/05 05:42:38;;;;;;;8.45;1.08;;;1.90;99.90;;;0.33;90.93;102247.69;4943679;28;20069;-74
2022/03/05 05:45:05;;;;;;;7.65;1.30;;;1.80;99.90;;;0.23;91.15;102254.41;4968822;28;20027;-73
2022/03/05 05:47:31;;;;;;;9.35;1.27;;;1.80;99.90;;;0.24;91.18;102252.66;4963900;28;20027;-73
2022/03/05 05:49:57;;;;;;;9.32;1.52;;;1.90;99.90;;;0.29;91.08;102251.06;4972347;28;20034;-73
2022/03/05 05:52:24;;;;;;;5.95;1.17;;;1.80;99.90;;;0.31;90.67;102254.56;4975390;28;20023;-73
2022/03/05 05:54:50;;;;;;;6.88;1.88;;;1.80;99.90;;;0.30;91.09;102250.22;4974462;28;20019;-74
2022/03/05 05:57:16;;;;;;;5.55;1.10;;;1.90;99.90;;;0.33;90.26;102253.75;4957467;28;20041;-74
2022/03/05 05:59:43;;;;;;;4.43;1.10;;;1.90;99.90;;;0.31;90.38;102258.03;4950948;28;20026;-73
2022/03/05 06:02:09;;;;;;;4.78;1.17;;;1.90;99.90;;;0.37;90.35;102259.88;4979805;28;20042;-73
2022/03/05 06:04:35;;;;;;;9.40;1.50;;;1.90;99.90;;;0.27;90.53;102261.38;4978860;28;20560;-74
2022/03/05 06:07:00;;;;;;;5.22;1.00;;;1.80;99.90;;;0.15;91.09;102259.44;4962523;28;20026;-73
2022/03/05 06:09:26;;;;;;;7.55;1.00;;;1.80;99.90;;;0.24;91.39;102270.81;4955815;28;20548;-74
2022/03/05 06:11:53;;;;;;;4.38;1.02;;;1.80;99.90;;;0.30;91.42;102271.84;4963891;28;20226;-74
2022/03/05 06:14:19;;;;;;;6.55;1.40;;;1.80;99.90;;;0.32;91.24;102266.66;4935945;28;20088;-73
2022/03/05 06:16:45;;;;;;;5.28;1.15;;;1.90;99.90;;;0.38;91.75;102269.38;4968363;28;20046;-74
2022/03/05 06:19:14;;;;;;;6.20;1.20;;;1.90;99.90;;;0.42;91.11;102268.59;4935761;28;22542;-74
2022/03/05 06:21:40;;;;;;;3.22;1.27;;;2.00;99.90;;;0.46;90.81;102265.22;4963140;28;20432;-74
2022/03/05 06:24:07;;;;;;;4.18;1.20;;;2.00;99.90;;;0.51;90.76;102271.38;4951476;28;20041;-74
2022/03/05 06:26:36;;;;;;;4.78;1.50;;;2.00;99.90;;;0.53;90.55;102271.41;4951953;28;20034;-74
2022/03/05 06:29:04;;;;;;;6.88;1.42;;;2.00;99.90;;;0.53;91.40;102279.19;4954797;28;20044;-74
2022/03/05 06:31:30;;;;;;;7.82;1.55;;;2.00;99.90;;;0.53;91.17;102272.28;4949849;28;20069;-74
2022/03/05 06:33:56;;;;;;;5.80;1.23;;;2.00;99.90;;;0.59;90.72;102276.72;4969097;28;20030;-74
2022/03/05 06:36:23;;;;;;;6.60;1.13;;;2.10;99.90;;;0.63;91.08;102273.34;4983091;28;20174;-74
2022/03/05 06:38:49;;;;;;;5.13;1.40;;;2.10;99.90;;;0.69;91.41;102280.34;4969290;28;20023;-74
2022/03/05 06:41:15;;;;;;;4.72;1.00;;;2.10;99.90;;;0.69;90.95;102280.34;4971941;28;20040;-74
2022/03/05 06:43:41;;;;;;;6.00;1.23;;;2.20;99.90;;;0.77;91.29;102271.84;4970196;28;20022;-74
2022/03/05 06:46:09;;;;;;;11.05;1.60;;;2.20;99.90;;;0.85;91.33;102273.75;4943491;28;20025;-74
2022/03/05 06:48:35;;;;;;;4.88;1.33;;;2.30;99.90;;;0.90;91.07;102280.75;4973955;28;20702;-74
2022/03/05 06:51:01;;;;;;;8.65;1.83;;;2.30;99.90;;;0.96;90.66;102277.41;4969454;28;20038;-74
2022/03/05 06:53:28;;;;;;;3.67;1.38;;;;;;;1.01;91.06;102281.81;4972571;28;20048;-74
2022/03/05 06:55:54;;;;;;;9.25;1.77;;;2.40;99.90;;;0.97;90.78;102285.22;4979146;28;20047;-74
2022/03/05 06:58:20;;;;;;;5.18;1.30;;;2.40;99.90;;;1.03;90.88;102289.63;4943928;28;20027;-74
2022/03/05 07:00:46;;;;;;;7.00;1.30;;;2.40;99.90;;;1.05;90.84;102287.94;4960707;28;20038;-74
2022/03/05 07:03:12;;;;;;;9.77;1.60;;;2.50;99.90;;;1.11;90.62;102288.03;4979177;28;20730;-74
2022/03/05 07:05:38;;;;;;;8.43;1.60;;;2.50;99.90;;;1.06;91.06;102300.06;4938305;28;20031;-74
2022/03/05 07:08:04;;;;;;;3.50;1.10;;;2.50;99.90;;;1.02;90.73;102288.75;4952107;28;20502;-74
2022/03/05 07:10:30;;;;;;;4.40;1.20;;;2.50;99.90;;;1.10;90.44;102298.38;4965902;28;20027;-74
2022/03/05 07:12:56;;;;;;;6.18;1.15;;;2.60;99.90;;;1.11;90.41;102294.97;4963252;28;20710;-74
2022/03/05 07:15:22;;;;;;;7.93;1.55;;;2.60;99.90;;;1.13;89.47;102294.13;4967186;28;20075;-74
2022/03/05 07:17:50;;;;;;;6.13;1.30;;;2.60;99.90;;;1.19;89.16;102294.25;4981163;28;20042;-74
2022/03/05 07:20:17;;;;;;;7.75;1.15;;;2.60;99.90;;;1.07;88.15;102296.63;4919559;28;20038;-73
2022/03/05 07:22:44;;;;;;;5.35;0.70;;;2.70;99.90;;;1.18;87.29;102291.63;4951839;28;20030;-74
2022/03/05 07:25:11;;;;;;;7.50;0.93;;;2.70;99.90;;;1.29;84.95;102287.47;4952734;28;20092;-74
2022/03/05 07:27:42;;;;;;;2.55;0.75;;;2.80;99.90;;;1.40;84.32;102296.34;4959080;28;20015;-74
2022/03/05 07:30:10;;;;;;;3.30;0.70;;;2.70;99.90;;;1.12;81.71;102297.56;4959938;28;20033;-72
2022/03/05 07:32:36;;;;;;;3.78;0.77;;;2.70;99.90;;;1.19;79.62;102295.97;4967410;28;20030;-74
2022/03/05 07:35:05;;;;;;;6.47;0.98;;;2.80;99.90;;;1.43;79.69;102295.50;4982213;28;20021;-75
2022/03/05 07:37:31;;;;;;;3.63;0.70;;;2.90;99.90;;;1.43;78.74;102291.19;4983415;28;20030;-74
2022/03/05 07:39:57;;;;;;;4.28;0.93;;;2.90;99.90;;;1.55;77.40;102300.00;4954478;28;20113;-74
2022/03/05 07:42:23;;;;;;;4.43;1.23;;;2.90;99.90;;;1.66;77.72;102314.03;4944605;28;20053;-74
2022/03/05 07:44:50;;;;;;;1.48;0.45;;;3.10;99.90;;;1.63;77.24;102314.00;4952616;28;20113;-74
2022/03/05 07:47:16;;;;;;;3.03;0.57;;;3.10;99.90;;;1.60;77.92;102304.44;4960602;28;20018;-74
2022/03/05 07:49:42;;;;;;;8.63;1.02;;;3.10;99.90;;;1.74;78.92;102311.56;4967783;28;20036;-74
2022/03/05 07:52:08;;;;;;;2.10;0.45;;;3.20;99.90;;;1.86;79.52;102311.75;4949340;28;20505;-74
2022/03/05 07:54:34;;;;;;;3.20;0.60;;;3.30;99.90;;;1.94;80.22;102312.72;4971026;28;20034;-74
2022/03/05 07:57:02;;;;;;;4.20;0.60;;;3.40;99.90;;;1.98;79.43;102316.25;4962054;28;20045;-74
2022/03/05 07:59:31;;;;;;;3.58;0.80;;;3.40;99.90;;;2.03;79.65;102310.28;4961012;28;20033;-74
2022/03/05 08:01:57;;;;;;;3.05;0.68;;;3.50;99.90;;;2.07;79.50;102315.50;4941754;28;20026;-73
2022/03/05 08:04:23;;;;;;;3.63;0.55;;;3.50;99.90;;;2.22;79.20;102318.28;4974794;28;20111;-73
2022/03/05 08:06:49;;;;;;;2.70;0.55;;;3.50;99.90;;;2.20;78.42;102314.81;4960755;28;20421;-73
2022/03/05 08:09:15;;;;;;;1.23;0.35;;;3.60;99.90;;;2.30;78.18;102316.69;4974577;28;20026;-73
2022/03/05 08:11:44;;;;;;;2.85;0.70;;;3.60;99.90;;;2.29;77.01;102311.44;4975794;28;20039;-73
2022/03/05 08:14:10;;;;;;;8.00;0.60;;;3.70;99.90;;;2.40;76.98;102318.56;4936406;28;20049;-74
2022/03/05 08:16:36;;;;;;;2.72;0.73;;;3.80;99.90;;;2.43;76.25;102317.72;4966726;28;20046;-74
2022/03/05 08:19:02;;;;;;;2.58;0.20;;;3.60;99.90;;;1.98;73.74;102321.44;4952901;28;20035;-74
2022/03/05 08:21:29;;;;;;;2.55;0.30;;;3.50;99.90;;;1.95;71.96;102313.59;4928699;28;20038;-79
2022/03/05 08:23:56;;;;;;;2.80;0.20;;;3.50;99.90;;;2.04;70.67;102325.00;4978864;28;20026;-72
2022/03/05 08:26:22;;;;;;;2.45;0.40;;;3.60;99.90;;;2.15;69.06;102330.34;4969103;28;20025;-72
2022/03/05 08:28:51;;;;;;;2.75;0.30;;;3.70;99.90;;;2.37;69.71;102334.09;4986952;28;20470;-72
2022/03/05 08:31:17;;;;;;;2.67;0.45;;;3.80;99.90;;;2.49;69.79;102336.00;4967180;28;20022;-73
2022/03/05 08:33:43;;;;;;;2.03;0.28;;;3.80;99.90;;;2.44;68.30;102345.44;4992206;28;20177;-72
2022/03/05 08:36:09;;;;;;;4.10;0.38;;;3.90;99.90;;;2.41;69.19;102346.28;4969873;28;20077;-72
2022/03/05 08:38:36;;;;;;;2.00;0.45;;;3.80;99.90;;;2.13;68.08;102333.78;4985768;28;20030;-73
2022/03/05 08:41:04;;;;;;;3.20;0.43;;;3.70;99.90;;;2.25;67.58;102342.63;4967274;28;20077;-72
2022/03/05 08:43:30;;;;;;;1.85;0.40;;;3.80;99.90;;;2.40;67.92;102348.88;4969190;28;20022;-73
2022/03/05 08:45:57;;;;;;;3.88;0.57;;;3.90;99.90;;;2.59;68.44;102356.06;4965511;28;20053;-73
2022/03/05 08:48:23;;;;;;;6.70;0.80;;;3.90;99.90;;;2.39;66.96;102355.78;4973953;28;20512;-74
2022/03/05 08:50:49;;;;;;;1.45;0.30;;;4.00;99.90;;;2.62;66.36;102356.09;4980866;28;20058;-74
2022/03/05 08:53:15;;;;;;;4.82;0.32;;;4.00;99.90;;;2.63;64.99;102362.16;4971076;28;20026;-74
2022/03/05 08:55:41;;;;;;;8.43;0.50;;;4.00;99.90;;;2.56;64.62;102363.81;4985321;28;20049;-74
2022/03/05 08:58:09;;;;;;;10.93;0.30;;;4.00;99.90;;;2.64;64.93;102359.59;4932780;28;20046;-74
2022/03/05 09:00:35;;;;;;;2.90;0.30;;;4.10;99.90;;;2.70;65.02;102364.00;4971130;28;20727;-74
2022/03/05 09:03:01;;;;;;;0.93;0.30;;;4.10;99.90;;;2.56;65.05;102374.22;4970134;28;20026;-74
2022/03/05 09:05:28;;;;;;;6.32;0.40;;;4.00;99.90;;;2.44;65.11;102367.13;4965968;28;20376;-74
2022/03/05 09:07:54;;;;;;;2.85;0.30;;;4.10;99.90;;;2.71;66.18;102367.47;4970664;28;20064;-74
2022/03/05 09:10:20;;;;;;;4.18;0.45;;;4.10;99.90;;;2.79;65.93;102371.03;4940175;28;20041;-74
2022/03/05 09:12:49;;;;;;;2.00;0.20;;;4.20;99.90;;;2.93;66.40;102366.84;4950310;28;20057;-74
2022/03/05 09:15:16;;;;;;;5.10;0.47;;;4.30;99.90;;;3.06;66.55;102370.47;4967650;28;20075;-75
2022/03/05 09:17:42;;;;;;;4.18;0.60;;;4.30;99.90;;;2.92;64.76;102378.13;4966638;28;20026;-75
2022/03/05 09:20:10;;;;;;;8.23;0.50;;;4.40;99.90;;;3.04;64.90;102369.56;4970774;28;20026;-75
2022/03/05 09:22:36;;;;;;;4.93;0.50;;;4.40;99.90;;;3.04;64.92;102373.03;4944362;28;20030;-76
2022/03/05 09:25:04;;;;;;;3.30;0.40;;;4.50;99.90;;;3.10;64.29;102377.44;4967840;28;20602;-75
2022/03/05 09:27:30;;;;;;;2.33;0.57;;;4.50;99.90;;;3.13;64.49;102369.66;4972587;28;20072;-75
2022/03/05 09:29:58;;;;;;;2.83;0.63;;;4.50;99.90;;;3.13;64.67;102371.41;4969911;28;20023;-75
2022/03/05 09:32:24;;;;;;;2.10;0.60;;;4.40;99.90;;;2.70;63.44;102374.41;4966422;28;20522;-75
2022/03/05 09:34:54;;;;;;;2.08;0.40;;;4.40;99.90;;;2.90;64.84;102374.63;4971254;28;20022;-75
2022/03/05 09:37:23;;;;;;;4.07;0.70;;;4.30;99.90;;;2.70;64.07;102370.91;4950120;28;20049;-76
2022/03/05 09:39:50;;;;;;;6.95;0.45;;;4.20;99.90;;;2.77;63.88;102370.16;4960186;28;20026;-76
2022/03/05 09:42:19;;;;;;;3.63;0.40;;;4.30;99.90;;;2.98;64.12;102373.00;4983350;28;20089;-75
2022/03/05 09:44:46;;;;;;;15.50;0.77;;;4.30;99.90;;;2.85;63.19;102378.88;4968639;28;20074;-75
2022/03/05 09:47:12;;;;;;;5.85;0.43;;;4.20;99.90;;;2.72;63.27;102371.81;4968930;28;20025;-75
2022/03/05 09:49:39;;;;;;;4.38;0.50;;;4.20;99.90;;;2.78;64.38;102369.28;4969876;28;20046;-76
2022/03/05 09:52:09;;;;;;;1.85;0.30;;;4.30;99.90;;;2.91;64.58;102371.16;4956240;28;20073;-75
2022/03/05 09:54:37;;;;;;;2.90;0.52;;;4.40;99.90;;;2.99;64.79;102366.94;4947889;28;20143;-76
2022/03/05 09:57:13;;;;;;;4.72;0.75;;;4.40;99.90;;;2.90;64.17;102377.25;4967609;28;20034;-75
2022/03/05 09:59:48;;;;;;;9.35;0.65;;;4.40;99.90;;;2.93;63.99;102379.00;4970435;28;20078;-75
2022/03/05 10:02:14;;;;;;;4.28;0.60;;;4.40;99.90;;;2.92;63.33;102372.06;4968669;28;20037;-75
2022/03/05 10:04:43;;;;;;;3.70;0.95;;;4.40;99.90;;;3.10;64.21;102376.59;4966752;28;20031;-75
2022/03/05 10:07:17;;;;;;;7.72;2.15;;;4.50;99.90;;;2.99;63.17;102377.34;4967881;28;20130;-75
2022/03/05 10:09:48;;;;;;;3.13;0.50;;;4.40;99.90;;;2.93;63.50;102379.00;4968791;28;20026;-75
2022/03/05 10:12:34;;;;;;;1.70;0.40;;;4.40;99.90;;;2.77;62.97;102380.56;4958202;28;20058;-75
2022/03/05 10:15:08;;;;;;;0.27;0.10;;;4.30;99.90;;;2.67;62.59;102387.34;4969195;28;20023;-75
2022/03/05 10:18:03;;;;;;;3.15;0.45;;;4.30;99.90;;;2.88;63.01;102379.81;4957721;28;20342;-78
2022/03/05 10:20:33;;;;;;;1.38;0.30;;;4.40;99.90;;;2.95;62.98;102382.50;4959192;28;20033;-77
2022/03/05 10:23:08;;;;;;;4.95;0.38;;;4.40;99.90;;;2.93;63.17;102385.06;4957883;28;20042;-79
2022/03/05 10:25:56;;;;;;;3.63;0.40;;;4.30;99.90;;;2.82;63.16;102386.69;4957938;28;20039;-79